13°C Temp
12°C Dewpoint
% Humidity
Temperature
10 KM/H
6 MPH
5 KTS
240°
West South
West

Wind Speed
Light Rain
Showers
Pressure 1006.92 (hPa) - 29.73 (in)
Visibility 6.2 (mi) - 10.0 (km)

Current Conditions
EHAM
Location 6km (3.2mi)
Metar :EHAM 152125Z 24005KT 9999 -SHRA FEW007 SCT017TCU BKN035 13/12 Q1007 NOSIG
Tue 15th October 23:25 pm

Airport
  Metar Aviation API Data Provided by https://www.checkwx.com/ PHP scripts by weather34.com ©2019